Disclaimer

Please do not use the information listed here in-flight or in-navigation, as they are not provided to us by the airports but are provided by volunteers, so they might be outdated.

Search


Regions


Airport information page

Radio informations:
NORMAN WELLS RDO - 122.2 MHz
MF - 122.2 MHz
EDMONTON CNTR - 134.825 MHz

Airport informations:
Latitude: 65° 16' 53.82" N
Longitude: 126° 47' 53.59" W
Elevation: 238 feet - 73 meters
Operating hours: N/A
Operating agency: Civil government, landing fees and diplomatic clearance may be required
Timezone: Second Sunday in March at 0200 to first Sunday in November at 0200 local time (Exception Arizona and that portion of Indiana in the Eastern Time Zone)
Fuel: Jet B, Wide cut turbine fuel, Without icing inhibitor.

100/130 octane gasoline, leaded, MIL-L-5572F (GREEN)

Runway information:
09/27 - 5997 x 150 feet< - >1828 x 46 meters

Recent METARs:
CYVQ 181700Z 12013KT 30SM FEW120 SCT220 M15/M19 A2990 RMK AC1CI4 AC TR SLP136
CYVQ 181800Z 11007KT 30SM FEW140 BKN200 BKN220 M15/M18 A2991 RMK AC2CI3CI2 SLP137
CYVQ 181800Z 11007KT 30SM FEW140 BKN200 BKN220 M15/M18 A2991 RMK AC2CI3CI2 SLP137

Airport on the map: